sensor_id;sensor_type;location;lat;lon;timestamp;pressure;altitude;pressure_sealevel;temperature;humidity
61484;BME280;47349;55.640;37.692;2023-03-21T00:00:40;98883.84;;;3.69;67.82
61484;BME280;47349;55.640;37.692;2023-03-21T00:03:07;98881.88;;;3.71;67.83
61484;BME280;47349;55.640;37.692;2023-03-21T00:05:38;98873.75;;;3.72;67.46
61484;BME280;47349;55.640;37.692;2023-03-21T00:08:05;98878.09;;;3.73;67.81
61484;BME280;47349;55.640;37.692;2023-03-21T00:10:32;98864.84;;;3.73;67.26
61484;BME280;47349;55.640;37.692;2023-03-21T00:13:13;98868.16;;;3.75;67.42
61484;BME280;47349;55.640;37.692;2023-03-21T00:15:41;98860.38;;;3.74;67.68
61484;BME280;47349;55.640;37.692;2023-03-21T00:18:34;98862.69;;;3.77;68.04
61484;BME280;47349;55.640;37.692;2023-03-21T00:21:09;98855.59;;;3.77;67.92
61484;BME280;47349;55.640;37.692;2023-03-21T00:23:57;98852.25;;;3.75;67.58
61484;BME280;47349;55.640;37.692;2023-03-21T00:26:24;98862.69;;;3.77;68.08
61484;BME280;47349;55.640;37.692;2023-03-21T00:28:51;98863.41;;;3.79;67.78
61484;BME280;47349;55.640;37.692;2023-03-21T00:31:19;98856.13;;;3.81;67.66
61484;BME280;47349;55.640;37.692;2023-03-21T00:33:48;98854.81;;;3.85;67.76
61484;BME280;47349;55.640;37.692;2023-03-21T00:36:15;98847.41;;;3.89;67.38
61484;BME280;47349;55.640;37.692;2023-03-21T00:38:43;98853.34;;;3.82;67.91
61484;BME280;47349;55.640;37.692;2023-03-21T00:41:10;98847.69;;;3.85;68.21
61484;BME280;47349;55.640;37.692;2023-03-21T00:43:57;98848.53;;;3.86;68.11
61484;BME280;47349;55.640;37.692;2023-03-21T00:46:26;98844.75;;;3.89;68.02
61484;BME280;47349;55.640;37.692;2023-03-21T00:49:07;98845.97;;;3.94;67.57
61484;BME280;47349;55.640;37.692;2023-03-21T00:51:34;98837.34;;;3.92;67.79
61484;BME280;47349;55.640;37.692;2023-03-21T00:54:04;98838.63;;;3.88;67.92
61484;BME280;47349;55.640;37.692;2023-03-21T00:56:31;98837.94;;;3.86;67.67
61484;BME280;47349;55.640;37.692;2023-03-21T00:58:58;98826.97;;;3.81;68.30
61484;BME280;47349;55.640;37.692;2023-03-21T01:01:25;98831.97;;;3.84;67.83
61484;BME280;47349;55.640;37.692;2023-03-21T01:03:58;98831.81;;;3.85;68.19
61484;BME280;47349;55.640;37.692;2023-03-21T01:06:35;98829.97;;;3.86;67.94
61484;BME280;47349;55.640;37.692;2023-03-21T01:09:06;98825.97;;;3.82;68.50
61484;BME280;47349;55.640;37.692;2023-03-21T01:11:34;98825.13;;;3.81;68.11
61484;BME280;47349;55.640;37.692;2023-03-21T01:14:02;98824.31;;;3.81;68.43
61484;BME280;47349;55.640;37.692;2023-03-21T01:16:48;98820.66;;;3.82;67.99
61484;BME280;47349;55.640;37.692;2023-03-21T01:19:16;98822.19;;;3.84;68.42
61484;BME280;47349;55.640;37.692;2023-03-21T01:21:55;98819.53;;;3.84;68.89
61484;BME280;47349;55.640;37.692;2023-03-21T01:24:23;98811.13;;;3.89;68.22
61484;BME280;47349;55.640;37.692;2023-03-21T01:26:50;98801.06;;;3.93;68.53
61484;BME280;47349;55.640;37.692;2023-03-21T01:29:17;98788.63;;;3.93;68.43
61484;BME280;47349;55.640;37.692;2023-03-21T01:31:44;98786.97;;;3.92;68.17
61484;BME280;47349;55.640;37.692;2023-03-21T01:34:11;98797.03;;;3.89;68.32
61484;BME280;47349;55.640;37.692;2023-03-21T01:36:38;98792.41;;;3.91;69.05
61484;BME280;47349;55.640;37.692;2023-03-21T01:39:10;98786.28;;;3.90;68.85
61484;BME280;47349;55.640;37.692;2023-03-21T01:41:38;98794.03;;;3.83;68.69
61484;BME280;47349;55.640;37.692;2023-03-21T01:44:18;98795.84;;;3.83;68.92
61484;BME280;47349;55.640;37.692;2023-03-21T01:46:47;98794.03;;;3.83;69.39
61484;BME280;47349;55.640;37.692;2023-03-21T01:49:44;98795.53;;;3.86;68.85
61484;BME280;47349;55.640;37.692;2023-03-21T01:52:36;98793.88;;;3.85;68.84
61484;BME280;47349;55.640;37.692;2023-03-21T01:55:34;98792.38;;;3.82;69.10
61484;BME280;47349;55.640;37.692;2023-03-21T01:58:10;98807.13;;;3.85;69.00
61484;BME280;47349;55.640;37.692;2023-03-21T02:00:46;98798.50;;;3.83;69.34
61484;BME280;47349;55.640;37.692;2023-03-21T02:03:27;98791.50;;;3.82;68.51
61484;BME280;47349;55.640;37.692;2023-03-21T02:08:57;98793.50;;;3.80;69.32
61484;BME280;47349;55.640;37.692;2023-03-21T02:11:25;98774.94;;;3.80;69.08
61484;BME280;47349;55.640;37.692;2023-03-21T02:13:53;98770.63;;;3.79;69.82
61484;BME280;47349;55.640;37.692;2023-03-21T02:16:47;98779.50;;;3.70;69.37
61484;BME280;47349;55.640;37.692;2023-03-21T02:27:25;98775.97;;;3.61;69.56
61484;BME280;47349;55.640;37.692;2023-03-21T02:30:02;98780.13;;;3.64;69.27
61484;BME280;47349;55.640;37.692;2023-03-21T02:41:02;98759.53;;;3.57;69.59
61484;BME280;47349;55.640;37.692;2023-03-21T02:46:16;98761.41;;;3.39;70.28
61484;BME280;47349;55.640;37.692;2023-03-21T02:51:20;98760.41;;;3.40;70.42
61484;BME280;47349;55.640;37.692;2023-03-21T02:53:49;98766.91;;;3.46;70.29
61484;BME280;47349;55.640;37.692;2023-03-21T02:56:41;98755.56;;;3.53;70.10
61484;BME280;47349;55.640;37.692;2023-03-21T02:59:08;98755.91;;;3.58;69.67
61484;BME280;47349;55.640;37.692;2023-03-21T03:01:37;98739.69;;;3.61;69.60
61484;BME280;47349;55.640;37.692;2023-03-21T03:04:20;98738.56;;;3.64;69.99
61484;BME280;47349;55.640;37.692;2023-03-21T03:07:08;98734.75;;;3.67;70.33
61484;BME280;47349;55.640;37.692;2023-03-21T03:10:02;98732.47;;;3.72;69.31
61484;BME280;47349;55.640;37.692;2023-03-21T03:17:45;98731.81;;;3.70;69.05
61484;BME280;47349;55.640;37.692;2023-03-21T03:22:51;98735.47;;;3.69;69.18
61484;BME280;47349;55.640;37.692;2023-03-21T03:25:20;98733.63;;;3.69;69.21
61484;BME280;47349;55.640;37.692;2023-03-21T03:28:07;98733.28;;;3.64;68.49
61484;BME280;47349;55.640;37.692;2023-03-21T03:30:36;98731.91;;;3.60;67.66
61484;BME280;47349;55.640;37.692;2023-03-21T03:33:14;98736.69;;;3.56;68.00
61484;BME280;47349;55.640;37.692;2023-03-21T03:35:44;98724.44;;;3.55;67.99
61484;BME280;47349;55.640;37.692;2023-03-21T03:38:41;98725.72;;;3.51;67.75
61484;BME280;47349;55.640;37.692;2023-03-21T03:42:44;98735.78;;;3.48;67.77
61484;BME280;47349;55.640;37.692;2023-03-21T03:47:48;98737.31;;;3.50;67.06
61484;BME280;47349;55.640;37.692;2023-03-21T03:55:55;98731.09;;;3.59;67.33
61484;BME280;47349;55.640;37.692;2023-03-21T04:00:19;98724.63;;;3.62;67.23
61484;BME280;47349;55.640;37.692;2023-03-21T04:04:15;98715.91;;;3.70;68.25
61484;BME280;47349;55.640;37.692;2023-03-21T04:11:01;98717.91;;;3.68;68.13
61484;BME280;47349;55.640;37.692;2023-03-21T04:13:44;98706.78;;;3.64;68.30
61484;BME280;47349;55.640;37.692;2023-03-21T04:16:21;98710.41;;;3.63;68.32
61484;BME280;47349;55.640;37.692;2023-03-21T04:19:06;98706.25;;;3.60;68.49
61484;BME280;47349;55.640;37.692;2023-03-21T04:21:47;98709.06;;;3.59;68.72
61484;BME280;47349;55.640;37.692;2023-03-21T04:24:35;98698.47;;;3.59;68.61
61484;BME280;47349;55.640;37.692;2023-03-21T04:32:12;98705.25;;;3.61;67.96
61484;BME280;47349;55.640;37.692;2023-03-21T04:36:37;98708.06;;;3.60;68.04
61484;BME280;47349;55.640;37.692;2023-03-21T04:39:57;98707.69;;;3.55;68.91
61484;BME280;47349;55.640;37.692;2023-03-21T04:42:25;98713.16;;;3.53;68.51
61484;BME280;47349;55.640;37.692;2023-03-21T04:54:22;98711.84;;;3.57;68.63
61484;BME280;47349;55.640;37.692;2023-03-21T04:59:16;98710.50;;;3.53;68.69
61484;BME280;47349;55.640;37.692;2023-03-21T05:02:56;98715.28;;;3.50;68.70
61484;BME280;47349;55.640;37.692;2023-03-21T05:06:08;98712.09;;;3.46;68.94
61484;BME280;47349;55.640;37.692;2023-03-21T05:09:33;98708.81;;;3.52;68.96
61484;BME280;47349;55.640;37.692;2023-03-21T05:12:59;98707.25;;;3.59;68.45
61484;BME280;47349;55.640;37.692;2023-03-21T05:40:33;98696.28;;;4.15;66.42
61484;BME280;47349;55.640;37.692;2023-03-21T05:43:39;98697.97;;;4.24;66.80
61484;BME280;47349;55.640;37.692;2023-03-21T05:46:38;98690.69;;;4.26;66.55
61484;BME280;47349;55.640;37.692;2023-03-21T05:49:37;98697.50;;;4.28;65.25
61484;BME280;47349;55.640;37.692;2023-03-21T05:53:14;98707.94;;;4.30;65.72
61484;BME280;47349;55.640;37.692;2023-03-21T05:55:58;98702.97;;;4.27;65.16
61484;BME280;47349;55.640;37.692;2023-03-21T05:59:03;98710.94;;;4.27;65.70
61484;BME280;47349;55.640;37.692;2023-03-21T06:02:12;98701.66;;;4.39;65.25
61484;BME280;47349;55.640;37.692;2023-03-21T06:05:32;98699.69;;;4.41;65.46
61484;BME280;47349;55.640;37.692;2023-03-21T06:08:20;98699.72;;;4.49;65.22
61484;BME280;47349;55.640;37.692;2023-03-21T06:11:13;98699.91;;;4.56;65.23
61484;BME280;47349;55.640;37.692;2023-03-21T06:14:21;98702.41;;;4.57;65.52
61484;BME280;47349;55.640;37.692;2023-03-21T06:17:29;98700.44;;;4.59;65.96
61484;BME280;47349;55.640;37.692;2023-03-21T06:20:12;98699.25;;;4.62;65.26
61484;BME280;47349;55.640;37.692;2023-03-21T06:23:01;98693.63;;;4.73;65.85
61484;BME280;47349;55.640;37.692;2023-03-21T06:25:46;98688.84;;;4.77;66.31
61484;BME280;47349;55.640;37.692;2023-03-21T06:28:30;98685.19;;;4.78;66.20
61484;BME280;47349;55.640;37.692;2023-03-21T06:31:15;98688.19;;;4.83;66.75
61484;BME280;47349;55.640;37.692;2023-03-21T06:34:02;98687.34;;;4.82;66.34
61484;BME280;47349;55.640;37.692;2023-03-21T06:36:44;98683.03;;;4.73;66.16
61484;BME280;47349;55.640;37.692;2023-03-21T06:39:31;98690.69;;;4.84;66.94
61484;BME280;47349;55.640;37.692;2023-03-21T06:42:13;98679.56;;;4.81;66.67
61484;BME280;47349;55.640;37.692;2023-03-21T06:45:00;98679.91;;;4.86;67.18
61484;BME280;47349;55.640;37.692;2023-03-21T06:47:51;98679.91;;;4.94;67.67
61484;BME280;47349;55.640;37.692;2023-03-21T06:50:33;98678.91;;;4.95;67.42
61484;BME280;47349;55.640;37.692;2023-03-21T06:53:18;98676.94;;;4.89;67.76
61484;BME280;47349;55.640;37.692;2023-03-21T06:56:33;98671.28;;;4.92;67.78
61484;BME280;47349;55.640;37.692;2023-03-21T06:59:21;98667.81;;;5.00;67.55
61484;BME280;47349;55.640;37.692;2023-03-21T07:02:02;98658.34;;;5.13;68.23
61484;BME280;47349;55.640;37.692;2023-03-21T07:05:08;98660.34;;;5.20;68.63
61484;BME280;47349;55.640;37.692;2023-03-21T07:07:57;98662.66;;;5.23;68.21
61484;BME280;47349;55.640;37.692;2023-03-21T07:11:03;98658.19;;;5.23;68.75
61484;BME280;47349;55.640;37.692;2023-03-21T07:13:47;98649.72;;;5.28;68.68
61484;BME280;47349;55.640;37.692;2023-03-21T07:16:33;98652.03;;;5.39;67.54
61484;BME280;47349;55.640;37.692;2023-03-21T07:19:13;98648.69;;;5.53;68.27
61484;BME280;47349;55.640;37.692;2023-03-21T07:22:14;98651.59;;;5.75;67.67
61484;BME280;47349;55.640;37.692;2023-03-21T07:24:59;98644.59;;;5.90;67.10
61484;BME280;47349;55.640;37.692;2023-03-21T07:27:41;98654.09;;;5.92;66.44
61484;BME280;47349;55.640;37.692;2023-03-21T07:30:23;98652.25;;;5.93;66.68
61484;BME280;47349;55.640;37.692;2023-03-21T07:33:04;98649.94;;;5.90;67.43
61484;BME280;47349;55.640;37.692;2023-03-21T07:35:49;98640.44;;;5.87;66.42
61484;BME280;47349;55.640;37.692;2023-03-21T07:38:18;98648.44;;;5.96;67.02
61484;BME280;47349;55.640;37.692;2023-03-21T07:41:01;98653.75;;;5.96;66.82
61484;BME280;47349;55.640;37.692;2023-03-21T07:43:33;98645.72;;;6.04;66.30
61484;BME280;47349;55.640;37.692;2023-03-21T07:46:14;98646.09;;;6.01;66.47
61484;BME280;47349;55.640;37.692;2023-03-21T07:49:00;98646.91;;;5.85;67.45
61484;BME280;47349;55.640;37.692;2023-03-21T07:51:42;98643.66;;;5.66;67.62
61484;BME280;47349;55.640;37.692;2023-03-21T07:54:09;98642.66;;;5.59;68.57
61484;BME280;47349;55.640;37.692;2023-03-21T07:56:51;98649.50;;;5.54;68.53
61484;BME280;47349;55.640;37.692;2023-03-21T07:59:32;98644.19;;;5.54;69.56
61484;BME280;47349;55.640;37.692;2023-03-21T08:02:16;98645.38;;;5.51;70.30
61484;BME280;47349;55.640;37.692;2023-03-21T08:05:07;98645.00;;;5.46;71.67
61484;BME280;47349;55.640;37.692;2023-03-21T08:08:11;98643.03;;;5.40;72.35
61484;BME280;47349;55.640;37.692;2023-03-21T08:10:52;98636.72;;;5.41;72.95
61484;BME280;47349;55.640;37.692;2023-03-21T08:13:41;98636.72;;;5.49;73.29
61484;BME280;47349;55.640;37.692;2023-03-21T08:16:40;98632.53;;;5.63;73.38
61484;BME280;47349;55.640;37.692;2023-03-21T08:19:43;98633.47;;;5.86;72.78
61484;BME280;47349;55.640;37.692;2023-03-21T08:22:24;98632.94;;;5.99;72.25
61484;BME280;47349;55.640;37.692;2023-03-21T08:24:55;98636.59;;;5.98;72.12
61484;BME280;47349;55.640;37.692;2023-03-21T08:27:24;98631.59;;;6.03;72.23
61484;BME280;47349;55.640;37.692;2023-03-21T08:30:27;98634.53;;;6.16;71.94
61484;BME280;47349;55.640;37.692;2023-03-21T08:32:57;98637.38;;;6.15;72.40
61484;BME280;47349;55.640;37.692;2023-03-21T08:36:02;98635.59;;;5.99;72.67
61484;BME280;47349;55.640;37.692;2023-03-21T08:38:44;98641.28;;;5.96;73.30
61484;BME280;47349;55.640;37.692;2023-03-21T08:41:31;98640.25;;;5.89;73.57
61484;BME280;47349;55.640;37.692;2023-03-21T08:44:13;98634.97;;;5.97;74.13
61484;BME280;47349;55.640;37.692;2023-03-21T08:46:57;98634.56;;;6.08;73.76
61484;BME280;47349;55.640;37.692;2023-03-21T08:49:38;98636.16;;;6.26;73.46
61484;BME280;47349;55.640;37.692;2023-03-21T08:52:08;98635.47;;;6.32;72.55
61484;BME280;47349;55.640;37.692;2023-03-21T08:54:50;98627.47;;;6.32;72.48
61484;BME280;47349;55.640;37.692;2023-03-21T08:57:33;98628.78;;;6.36;72.82
61484;BME280;47349;55.640;37.692;2023-03-21T09:00:17;98631.56;;;6.42;71.51
61484;BME280;47349;55.640;37.692;2023-03-21T09:03:03;98633.38;;;6.50;71.09
61484;BME280;47349;55.640;37.692;2023-03-21T09:05:51;98627.25;;;6.41;72.21
61484;BME280;47349;55.640;37.692;2023-03-21T09:08:33;98630.41;;;6.45;72.10
61484;BME280;47349;55.640;37.692;2023-03-21T09:11:14;98622.75;;;6.42;72.04
61484;BME280;47349;55.640;37.692;2023-03-21T09:13:57;98632.47;;;6.35;72.33
61484;BME280;47349;55.640;37.692;2023-03-21T09:16:26;98624.50;;;6.27;73.40
61484;BME280;47349;55.640;37.692;2023-03-21T09:19:08;98622.03;;;6.25;73.42
61484;BME280;47349;55.640;37.692;2023-03-21T09:21:49;98632.41;;;6.43;73.35
61484;BME280;47349;55.640;37.692;2023-03-21T09:24:32;98625.78;;;6.62;73.01
61484;BME280;47349;55.640;37.692;2023-03-21T09:27:14;98619.56;;;6.78;72.33
61484;BME280;47349;55.640;37.692;2023-03-21T09:29:52;98621.16;;;6.87;71.74
61484;BME280;47349;55.640;37.692;2023-03-21T09:32:39;98621.78;;;6.89;72.29
61484;BME280;47349;55.640;37.692;2023-03-21T09:35:22;98621.16;;;6.64;73.73
61484;BME280;47349;55.640;37.692;2023-03-21T09:38:05;98621.41;;;6.46;74.82
61484;BME280;47349;55.640;37.692;2023-03-21T09:46:38;98624.47;;;6.35;77.41
61484;BME280;47349;55.640;37.692;2023-03-21T09:52:18;98614.03;;;6.79;74.79
61484;BME280;47349;55.640;37.692;2023-03-21T09:55:37;98610.00;;;7.06;73.46
61484;BME280;47349;55.640;37.692;2023-03-21T10:01:20;98597.25;;;7.16;72.66
61484;BME280;47349;55.640;37.692;2023-03-21T10:04:07;98593.13;;;7.29;72.15
61484;BME280;47349;55.640;37.692;2023-03-21T10:06:55;98595.00;;;7.43;72.16
61484;BME280;47349;55.640;37.692;2023-03-21T10:09:38;98586.25;;;7.34;71.83
61484;BME280;47349;55.640;37.692;2023-03-21T10:12:24;98577.34;;;7.27;72.42
61484;BME280;47349;55.640;37.692;2023-03-21T10:15:14;98578.97;;;7.13;72.95
61484;BME280;47349;55.640;37.692;2023-03-21T10:17:59;98571.78;;;7.14;73.05
61484;BME280;47349;55.640;37.692;2023-03-21T10:20:46;98569.81;;;7.31;72.28
61484;BME280;47349;55.640;37.692;2023-03-21T10:23:29;98571.66;;;7.45;71.96
61484;BME280;47349;55.640;37.692;2023-03-21T10:26:31;98567.88;;;7.54;71.80
61484;BME280;47349;55.640;37.692;2023-03-21T10:29:16;98570.25;;;7.49;71.65
61484;BME280;47349;55.640;37.692;2023-03-21T10:32:12;98558.59;;;7.50;71.72
61484;BME280;47349;55.640;37.692;2023-03-21T10:35:02;98557.03;;;7.41;71.53
61484;BME280;47349;55.640;37.692;2023-03-21T10:37:39;98550.69;;;7.42;71.32
61484;BME280;47349;55.640;37.692;2023-03-21T10:40:22;98544.72;;;7.40;71.73
61484;BME280;47349;55.640;37.692;2023-03-21T10:46:20;98541.03;;;7.56;70.61
61484;BME280;47349;55.640;37.692;2023-03-21T10:49:01;98542.41;;;7.66;70.67
61484;BME280;47349;55.640;37.692;2023-03-21T10:51:52;98545.16;;;7.73;69.96
61484;BME280;47349;55.640;37.692;2023-03-21T10:54:49;98541.38;;;7.67;69.63
61484;BME280;47349;55.640;37.692;2023-03-21T11:00:44;98543.31;;;7.88;68.59
61484;BME280;47349;55.640;37.692;2023-03-21T11:03:48;98537.97;;;8.03;68.35
61484;BME280;47349;55.640;37.692;2023-03-21T11:06:38;98537.53;;;7.85;67.50
61484;BME280;47349;55.640;37.692;2023-03-21T11:09:45;98547.09;;;7.79;67.61
61484;BME280;47349;55.640;37.692;2023-03-21T11:12:58;98539.66;;;7.75;67.58
61484;BME280;47349;55.640;37.692;2023-03-21T11:16:10;98543.78;;;7.77;67.11
61484;BME280;47349;55.640;37.692;2023-03-21T11:18:39;98539.44;;;7.91;66.61
61484;BME280;47349;55.640;37.692;2023-03-21T11:21:08;98538.03;;;8.10;65.91
61484;BME280;47349;55.640;37.692;2023-03-21T11:23:38;98544.91;;;8.19;65.55
61484;BME280;47349;55.640;37.692;2023-03-21T11:26:08;98539.50;;;8.34;64.97
61484;BME280;47349;55.640;37.692;2023-03-21T11:28:36;98533.84;;;8.37;64.03
61484;BME280;47349;55.640;37.692;2023-03-21T11:31:04;98527.06;;;8.41;62.67
61484;BME280;47349;55.640;37.692;2023-03-21T11:33:39;98529.00;;;8.47;62.33
61484;BME280;47349;55.640;37.692;2023-03-21T11:38:39;98522.91;;;8.53;62.17
61484;BME280;47349;55.640;37.692;2023-03-21T11:41:07;98528.28;;;8.60;61.38
61484;BME280;47349;55.640;37.692;2023-03-21T11:43:35;98526.56;;;8.73;61.57
61484;BME280;47349;55.640;37.692;2023-03-21T11:48:32;98519.03;;;8.84;59.92
61484;BME280;47349;55.640;37.692;2023-03-21T11:51:09;98515.34;;;8.85;59.57
61484;BME280;47349;55.640;37.692;2023-03-21T11:53:43;98513.03;;;9.03;59.56
61484;BME280;47349;55.640;37.692;2023-03-21T12:01:26;98505.94;;;9.51;57.67
61484;BME280;47349;55.640;37.692;2023-03-21T12:06:44;98498.34;;;10.10;56.25
61484;BME280;47349;55.640;37.692;2023-03-21T12:12:02;98479.88;;;10.28;54.73
61484;BME280;47349;55.640;37.692;2023-03-21T12:22:34;98487.09;;;10.34;52.48
61484;BME280;47349;55.640;37.692;2023-03-21T12:35:48;98477.03;;;11.02;49.92
61484;BME280;47349;55.640;37.692;2023-03-21T12:45:33;98469.19;;;11.14;46.10
61484;BME280;47349;55.640;37.692;2023-03-21T12:50:40;98450.75;;;11.31;45.24
61484;BME280;47349;55.640;37.692;2023-03-21T12:53:23;98457.41;;;11.15;46.06
61484;BME280;47349;55.640;37.692;2023-03-21T12:55:53;98453.06;;;11.27;46.30
61484;BME280;47349;55.640;37.692;2023-03-21T12:58:23;98451.72;;;11.56;44.96
61484;BME280;47349;55.640;37.692;2023-03-21T13:00:55;98447.19;;;11.50;44.92
61484;BME280;47349;55.640;37.692;2023-03-21T13:03:25;98455.56;;;11.80;44.79
61484;BME280;47349;55.640;37.692;2023-03-21T13:06:06;98444.94;;;11.99;44.55
61484;BME280;47349;55.640;37.692;2023-03-21T13:08:36;98443.72;;;12.33;43.68
61484;BME280;47349;55.640;37.692;2023-03-21T13:11:05;98443.25;;;12.43;43.07
61484;BME280;47349;55.640;37.692;2023-03-21T13:13:38;98439.06;;;12.47;43.48
61484;BME280;47349;55.640;37.692;2023-03-21T13:24:02;98433.34;;;12.37;43.07
61484;BME280;47349;55.640;37.692;2023-03-21T13:26:37;98442.28;;;12.30;43.00
61484;BME280;47349;55.640;37.692;2023-03-21T13:29:21;98432.25;;;12.13;43.07
61484;BME280;47349;55.640;37.692;2023-03-21T13:31:50;98424.66;;;12.09;42.99
61484;BME280;47349;55.640;37.692;2023-03-21T13:34:22;98430.69;;;11.98;43.02
61484;BME280;47349;55.640;37.692;2023-03-21T13:36:50;98424.59;;;12.16;42.62
61484;BME280;47349;55.640;37.692;2023-03-21T13:39:24;98421.91;;;12.16;42.18
61484;BME280;47349;55.640;37.692;2023-03-21T13:41:53;98423.84;;;12.02;42.15
61484;BME280;47349;55.640;37.692;2023-03-21T13:46:54;98431.03;;;12.08;42.05
61484;BME280;47349;55.640;37.692;2023-03-21T13:49:26;98428.34;;;12.15;41.87
61484;BME280;47349;55.640;37.692;2023-03-21T13:51:54;98423.13;;;12.20;41.75
61484;BME280;47349;55.640;37.692;2023-03-21T13:54:30;98423.53;;;12.24;41.71
61484;BME280;47349;55.640;37.692;2023-03-21T13:57:19;98421.63;;;11.99;41.66
61484;BME280;47349;55.640;37.692;2023-03-21T13:59:46;98424.03;;;12.07;41.24
61484;BME280;47349;55.640;37.692;2023-03-21T14:02:23;98426.06;;;12.12;41.90
61484;BME280;47349;55.640;37.692;2023-03-21T14:04:55;98422.91;;;12.22;40.89
61484;BME280;47349;55.640;37.692;2023-03-21T14:09:59;98428.63;;;12.00;40.56
61484;BME280;47349;55.640;37.692;2023-03-21T14:12:34;98419.31;;;12.03;40.36
61484;BME280;47349;55.640;37.692;2023-03-21T14:15:07;98414.06;;;11.76;40.65
61484;BME280;47349;55.640;37.692;2023-03-21T14:17:58;98410.63;;;11.63;40.84
61484;BME280;47349;55.640;37.692;2023-03-21T14:20:41;98405.38;;;11.74;40.58
61484;BME280;47349;55.640;37.692;2023-03-21T14:23:13;98411.22;;;11.65;39.93
61484;BME280;47349;55.640;37.692;2023-03-21T14:25:40;98409.56;;;11.19;40.49
61484;BME280;47349;55.640;37.692;2023-03-21T14:30:41;98413.56;;;10.50;41.81
61484;BME280;47349;55.640;37.692;2023-03-21T14:33:32;98417.44;;;10.21;42.43
61484;BME280;47349;55.640;37.692;2023-03-21T14:36:03;98426.44;;;10.00;43.02
61484;BME280;47349;55.640;37.692;2023-03-21T14:38:35;98423.13;;;9.78;42.76
61484;BME280;47349;55.640;37.692;2023-03-21T14:41:03;98420.22;;;9.73;43.78
61484;BME280;47349;55.640;37.692;2023-03-21T14:43:30;98421.66;;;9.75;43.31
61484;BME280;47349;55.640;37.692;2023-03-21T14:46:00;98416.09;;;9.70;43.16
61484;BME280;47349;55.640;37.692;2023-03-21T14:48:31;98423.28;;;9.63;44.01
61484;BME280;47349;55.640;37.692;2023-03-21T14:51:03;98427.97;;;9.55;43.47
61484;BME280;47349;55.640;37.692;2023-03-21T14:53:31;98409.25;;;9.48;43.27
61484;BME280;47349;55.640;37.692;2023-03-21T14:58:28;98413.94;;;9.39;43.21
61484;BME280;47349;55.640;37.692;2023-03-21T15:00:57;98419.00;;;9.27;43.40
61484;BME280;47349;55.640;37.692;2023-03-21T15:03:26;98421.66;;;9.21;43.01
61484;BME280;47349;55.640;37.692;2023-03-21T15:05:54;98411.94;;;9.13;43.20
61484;BME280;47349;55.640;37.692;2023-03-21T15:08:23;98421.78;;;9.06;43.27
61484;BME280;47349;55.640;37.692;2023-03-21T15:13:35;98406.09;;;8.96;43.55
61484;BME280;47349;55.640;37.692;2023-03-21T15:16:03;98409.81;;;8.95;42.49
61484;BME280;47349;55.640;37.692;2023-03-21T15:18:35;98407.94;;;8.96;43.07
61484;BME280;47349;55.640;37.692;2023-03-21T15:21:04;98412.03;;;8.92;43.46
61484;BME280;47349;55.640;37.692;2023-03-21T15:23:41;98409.56;;;8.90;42.89
61484;BME280;47349;55.640;37.692;2023-03-21T15:26:16;98418.78;;;8.88;43.60
61484;BME280;47349;55.640;37.692;2023-03-21T15:28:47;98425.53;;;8.84;43.34
61484;BME280;47349;55.640;37.692;2023-03-21T15:31:19;98422.25;;;8.82;43.36
61484;BME280;47349;55.640;37.692;2023-03-21T15:33:50;98416.25;;;8.80;43.60
61484;BME280;47349;55.640;37.692;2023-03-21T15:36:20;98418.94;;;8.80;43.16
61484;BME280;47349;55.640;37.692;2023-03-21T15:38:48;98418.31;;;8.78;43.39
61484;BME280;47349;55.640;37.692;2023-03-21T15:43:46;98419.72;;;8.73;43.42
61484;BME280;47349;55.640;37.692;2023-03-21T15:51:40;98423.63;;;8.71;43.33
61484;BME280;47349;55.640;37.692;2023-03-21T15:54:12;98422.78;;;8.70;43.50
61484;BME280;47349;55.640;37.692;2023-03-21T15:56:41;98418.03;;;8.66;42.90
61484;BME280;47349;55.640;37.692;2023-03-21T15:59:13;98417.19;;;8.65;43.37
61484;BME280;47349;55.640;37.692;2023-03-21T16:01:40;98422.53;;;8.65;43.49
61484;BME280;47349;55.640;37.692;2023-03-21T16:04:08;98430.16;;;8.68;43.09
61484;BME280;47349;55.640;37.692;2023-03-21T16:06:36;98433.22;;;8.65;43.10
61484;BME280;47349;55.640;37.692;2023-03-21T16:11:41;98435.63;;;8.60;43.14
61484;BME280;47349;55.640;37.692;2023-03-21T16:14:08;98436.22;;;8.56;43.55
61484;BME280;47349;55.640;37.692;2023-03-21T16:16:38;98433.53;;;8.56;43.74
61484;BME280;47349;55.640;37.692;2023-03-21T16:19:07;98438.06;;;8.55;43.74
61484;BME280;47349;55.640;37.692;2023-03-21T16:21:35;98430.47;;;8.52;43.13
61484;BME280;47349;55.640;37.692;2023-03-21T16:24:07;98431.72;;;8.56;43.41
61484;BME280;47349;55.640;37.692;2023-03-21T16:26:40;98441.75;;;8.54;43.56
61484;BME280;47349;55.640;37.692;2023-03-21T16:29:08;98443.22;;;8.57;43.75
61484;BME280;47349;55.640;37.692;2023-03-21T16:31:38;98445.69;;;8.58;44.21
61484;BME280;47349;55.640;37.692;2023-03-21T16:34:06;98443.00;;;8.52;44.11
61484;BME280;47349;55.640;37.692;2023-03-21T16:36:35;98445.81;;;8.50;43.88
61484;BME280;47349;55.640;37.692;2023-03-21T16:41:46;98445.81;;;8.50;44.53
61484;BME280;47349;55.640;37.692;2023-03-21T16:44:14;98448.69;;;8.48;44.12
61484;BME280;47349;55.640;37.692;2023-03-21T16:46:41;98441.25;;;8.44;44.11
61484;BME280;47349;55.640;37.692;2023-03-21T16:49:41;98451.31;;;8.42;44.83
61484;BME280;47349;55.640;37.692;2023-03-21T16:57:44;98457.50;;;8.42;45.86
61484;BME280;47349;55.640;37.692;2023-03-21T17:37:34;98495.38;;;8.16;50.16
61484;BME280;47349;55.640;37.692;2023-03-21T17:40:04;98495.78;;;8.13;50.33
61484;BME280;47349;55.640;37.692;2023-03-21T17:42:32;98506.25;;;8.15;50.90
61484;BME280;47349;55.640;37.692;2023-03-21T17:44:59;98512.16;;;8.10;51.29
61484;BME280;47349;55.640;37.692;2023-03-21T17:47:28;98511.69;;;8.07;51.25
61484;BME280;47349;55.640;37.692;2023-03-21T17:49:56;98508.78;;;8.02;51.87
61484;BME280;47349;55.640;37.692;2023-03-21T17:52:24;98512.19;;;7.95;51.66
61484;BME280;47349;55.640;37.692;2023-03-21T17:54:51;98511.09;;;7.90;52.67